بيروت, لبنان

10:12 AM EEST on هاêè 23, 2015 (GMT +0300)
Beirut International | | Change Station
CLOSE
Current Station
Airport
Location: Beirut,
Elevation: 62 ft
Nearby Weather Stations

Elev 62 ft 33.82 °N, 35.49 °E | Updated 12 minutes ago

Mostly Cloudy
غائم كلياً
75 °F
Feels Like 75 °F
N
18
ريح متغير ريح from جنوب غربی

هذا اليوم
High -- | Low -- °F
--% Chance of Precip.
Yesterday
High -- | Low -- °F
Precip. -- في
5:32 AM 7:37 PM
الهلال الأول, 27% visible
الضغط 29.95 في
وضوح الرؤية 6.2 أميال
سحابات غائم كلياً 7000 ft
نقطة الندى 64 °F
الرطوبة 69%
Rainfall 0.00 في
عمق الثلج Not available.
الأشعة فوق البنفسجية 5 out of 12
Pollen Not available.
جودة الهواء Not available.
Flu Activity Not available.
METAR OLBA 230700Z 22016KT 9999 BKN070 24/18 Q1014

More Conditions Fewer Conditions

الضغط 29.95 في
وضوح الرؤية 6.2 أميال
سحابات غائم كلياً 7000 ft
نقطة الندى 64 °F
الرطوبة 69%
Rainfall 0.00 في
عمق الثلج Not available.
الأشعة فوق البنفسجية 5 out of 12
Pollen Not available.
جودة الهواء Not available.
Flu Activity Not available.
METAR OLBA 230700Z 22016KT 9999 BKN070 24/18 Q1014

More Conditions Fewer Conditions

10-Day Weather Forecast

Almanac

علم الفلك

May. 23, 2015 Rise Set
Actual Time
Civil Twilight
Nautical Twilight
Astronomical Twilight
قمر
Length Of Visible Light
طول الیوم
Tomorrow will be .
, % of the Moon is Illuminated

Today's Extremes

Country Highs Country Lows

Community

WunderPhotos

Upload Photos

1,823,394 photos uploaded!

WunderBlogs® & News

Nearby

جودة الهواء

  جودة الهواء AQ Index Pollutant
Not available.

عمق الثلج

Station Depth Elevation

Earthquake Activity

City Distance Mag. Time & Date
Minimum magnitude displayed is 2.5.

Coastal Water Temperatures

مكان درجات الحرارة

Stations

Nearby Weather Stations

Station Location الحرارة رياح باردة نقطة الندى الرطوبة ريح Precip. Elev تحديث Type